createdAt,value
2022-08-17T00:01:51.541Z,11.75
2022-08-17T00:04:23.494Z,13.65
2022-08-17T00:06:53.442Z,11.85
2022-08-17T00:09:21.807Z,13.23
2022-08-17T00:12:41.694Z,11.32
2022-08-17T00:14:39.471Z,12.30
2022-08-17T00:17:09.767Z,13.65
2022-08-17T00:19:38.211Z,12.27
2022-08-17T00:22:34.344Z,12.88
2022-08-17T00:24:56.311Z,12.13
2022-08-17T00:27:24.764Z,13.32
2022-08-17T00:29:53.244Z,16.73
2022-08-17T00:33:13.956Z,14.98
2022-08-17T00:35:12.882Z,14.80
2022-08-17T00:37:41.455Z,14.38
2022-08-17T00:40:10.711Z,14.13
2022-08-17T00:42:39.374Z,14.02
2022-08-17T00:45:08.539Z,13.80
2022-08-17T00:47:38.355Z,13.35
2022-08-17T00:50:07.579Z,13.00
2022-08-17T00:52:38.091Z,13.25
2022-08-17T00:55:07.666Z,11.40
2022-08-17T00:57:38.291Z,11.55
2022-08-17T01:00:09.981Z,13.70
2022-08-17T01:02:43.509Z,14.45
2022-08-17T01:05:15.007Z,13.15
2022-08-17T01:07:44.187Z,13.10
2022-08-17T01:10:58.158Z,13.32
2022-08-17T01:13:03.515Z,13.00
2022-08-17T01:15:32.006Z,13.80
2022-08-17T01:18:01.971Z,15.00
2022-08-17T01:20:30.357Z,13.35
2022-08-17T01:23:12.493Z,14.77
2022-08-17T01:25:50.923Z,14.50
2022-08-17T01:28:52.618Z,14.65
2022-08-17T01:31:09.100Z,13.73
2022-08-17T01:33:37.871Z,14.88
2022-08-17T01:36:06.941Z,14.60
2022-08-17T01:38:36.952Z,13.70
2022-08-17T01:41:07.704Z,14.20
2022-08-17T01:43:39.092Z,14.15
2022-08-17T01:46:08.035Z,15.57
2022-08-17T01:48:38.305Z,15.00
2022-08-17T01:51:07.694Z,13.38
2022-08-17T01:53:39.612Z,12.48
2022-08-17T01:56:09.771Z,13.50
2022-08-17T01:58:38.946Z,12.18
2022-08-17T02:01:08.158Z,12.57
2022-08-17T02:03:37.856Z,12.32
2022-08-17T02:06:26.954Z,13.70
2022-08-17T02:09:03.187Z,13.00
2022-08-17T02:11:32.787Z,12.75
2022-08-17T02:14:03.092Z,14.02
2022-08-17T02:16:37.575Z,13.73
2022-08-17T02:19:07.851Z,13.13
2022-08-17T02:21:36.365Z,14.30
2022-08-17T02:24:06.822Z,12.65
2022-08-17T02:26:35.252Z,12.77
2022-08-17T02:29:04.182Z,13.20
2022-08-17T02:31:32.718Z,14.45
2022-08-17T02:34:04.574Z,13.60
2022-08-17T02:36:34.361Z,13.45
2022-08-17T02:39:03.256Z,12.25
2022-08-17T02:41:33.068Z,13.52
2022-08-17T02:44:01.819Z,13.80
2022-08-17T02:46:30.542Z,12.93
2022-08-17T02:48:59.190Z,12.55
2022-08-17T02:51:28.017Z,14.27
2022-08-17T02:54:05.279Z,14.02
2022-08-17T02:56:46.390Z,13.48
2022-08-17T02:59:14.814Z,14.33
2022-08-17T03:01:43.297Z,14.57
2022-08-17T03:04:11.720Z,13.65
2022-08-17T03:06:40.193Z,13.53
2022-08-17T03:09:08.708Z,13.70
2022-08-17T03:11:37.119Z,13.67
2022-08-17T03:14:06.907Z,13.60
2022-08-17T03:16:35.313Z,13.20
2022-08-17T03:19:04.841Z,12.87
2022-08-17T03:21:33.267Z,13.63
2022-08-17T03:24:01.680Z,12.83
2022-08-17T03:26:37.582Z,13.30
2022-08-17T03:29:07.396Z,13.93
2022-08-17T03:31:37.196Z,13.83
2022-08-17T03:34:06.025Z,13.27
2022-08-17T03:36:36.050Z,14.43
2022-08-17T03:39:04.726Z,14.30
2022-08-17T03:41:33.151Z,14.40
2022-08-17T03:44:01.571Z,14.50
2022-08-17T03:46:48.845Z,14.60
2022-08-17T03:49:35.015Z,13.90
2022-08-17T03:52:21.127Z,14.37
2022-08-17T03:55:07.419Z,13.50
2022-08-17T03:57:36.567Z,14.00
2022-08-17T04:00:06.088Z,13.57
2022-08-17T04:02:36.254Z,13.93
2022-08-17T04:05:07.239Z,14.20
2022-08-17T04:07:35.642Z,15.13
2022-08-17T04:10:04.246Z,14.23
2022-08-17T04:12:44.118Z,14.77
2022-08-17T04:15:13.513Z,14.63
2022-08-17T04:17:44.323Z,14.53
2022-08-17T04:20:13.340Z,13.23
2022-08-17T04:22:41.851Z,15.40
2022-08-17T04:25:11.649Z,14.67
2022-08-17T04:27:40.106Z,14.83
2022-08-17T04:30:09.125Z,16.07
2022-08-17T04:33:03.523Z,14.80
2022-08-17T04:35:37.615Z,15.90
2022-08-17T04:38:06.079Z,15.00
2022-08-17T04:40:52.659Z,14.37
2022-08-17T04:43:22.074Z,14.93
2022-08-17T04:45:55.239Z,15.23
2022-08-17T04:48:34.738Z,15.43
2022-08-17T04:51:07.211Z,15.90
2022-08-17T04:53:35.670Z,15.20
2022-08-17T04:56:04.343Z,16.10
2022-08-17T04:58:33.251Z,15.77
2022-08-17T05:01:01.946Z,15.70
2022-08-17T05:03:31.082Z,18.47
2022-08-17T05:05:59.674Z,14.17
2022-08-17T05:08:29.607Z,15.57
2022-08-17T05:10:58.064Z,17.37
2022-08-17T05:13:29.692Z,16.63
2022-08-17T05:15:58.740Z,15.60
2022-08-17T05:18:27.223Z,16.37
2022-08-17T05:20:55.836Z,15.37
2022-08-17T05:23:25.616Z,15.10
2022-08-17T05:25:56.502Z,16.10
2022-08-17T05:28:27.533Z,15.40
2022-08-17T05:30:57.000Z,17.57
2022-08-17T05:33:26.471Z,18.77
2022-08-17T05:35:56.695Z,15.40
2022-08-17T05:38:26.512Z,16.63
2022-08-17T05:40:56.574Z,17.85
2022-08-17T05:43:26.494Z,19.33
2022-08-17T05:46:06.505Z,20.60
2022-08-17T05:48:40.119Z,20.17
2022-08-17T05:51:26.005Z,19.08
2022-08-17T05:53:59.631Z,19.13
2022-08-17T05:56:39.404Z,21.95
2022-08-17T05:59:12.289Z,17.75
2022-08-17T06:01:47.683Z,17.20
2022-08-17T06:04:20.787Z,17.00
2022-08-17T06:06:53.492Z,18.02
2022-08-17T06:09:32.959Z,17.27
2022-08-17T06:12:07.103Z,17.85
2022-08-17T06:14:51.532Z,16.38
2022-08-17T06:17:23.043Z,16.38
2022-08-17T06:19:54.684Z,15.80
2022-08-17T06:22:25.476Z,15.65
2022-08-17T06:24:56.853Z,15.15
2022-08-17T06:27:30.801Z,15.57
2022-08-17T06:30:02.696Z,16.15
2022-08-17T06:32:32.097Z,14.88
2022-08-17T06:35:01.055Z,14.68
2022-08-17T06:37:39.734Z,13.80
2022-08-17T06:40:17.151Z,13.88
2022-08-17T06:42:55.042Z,14.13
2022-08-17T06:45:37.089Z,12.32
2022-08-17T06:48:09.124Z,12.82
2022-08-17T06:50:39.966Z,13.07
2022-08-17T06:53:13.923Z,12.80
2022-08-17T06:55:45.658Z,11.02
2022-08-17T06:58:17.037Z,9.60
2022-08-17T07:00:47.186Z,8.40
2022-08-17T07:03:20.930Z,7.90
2022-08-17T07:05:53.175Z,9.20
2022-08-17T07:08:29.684Z,9.63
2022-08-17T07:11:02.421Z,9.25
2022-08-17T07:13:36.124Z,7.90
2022-08-17T07:16:09.545Z,7.80
2022-08-17T07:18:38.042Z,7.82
2022-08-17T07:21:15.516Z,7.82
2022-08-17T07:23:54.335Z,7.93
2022-08-17T07:26:24.318Z,8.40
2022-08-17T07:28:56.234Z,9.00
2022-08-17T07:31:26.734Z,12.98
2022-08-17T07:34:03.806Z,13.20
2022-08-17T07:36:34.003Z,11.73
2022-08-17T07:39:03.104Z,10.05
2022-08-17T07:41:53.447Z,11.40
2022-08-17T07:44:23.571Z,10.07
2022-08-17T07:47:10.249Z,10.65
2022-08-17T07:49:40.335Z,6.28
2022-08-17T07:52:24.273Z,6.43
2022-08-17T07:54:58.903Z,8.00
2022-08-17T07:57:35.574Z,6.57
2022-08-17T08:00:31.670Z,6.28
2022-08-17T08:03:14.790Z,10.70
2022-08-17T08:05:53.142Z,9.48
2022-08-17T08:08:28.131Z,6.20
2022-08-17T08:11:01.454Z,5.95
2022-08-17T08:13:32.361Z,6.25
2022-08-17T08:16:14.525Z,5.93
2022-08-17T08:18:54.152Z,8.68
2022-08-17T08:21:33.353Z,6.22
2022-08-17T08:24:06.309Z,6.63
2022-08-17T08:26:37.490Z,6.82
2022-08-17T08:29:09.500Z,6.70
2022-08-17T08:31:48.297Z,7.30
2022-08-17T08:34:54.762Z,6.03
2022-08-17T08:37:33.703Z,6.78
2022-08-17T08:40:11.067Z,5.55
2022-08-17T08:42:44.010Z,5.47
2022-08-17T08:45:15.461Z,6.63
2022-08-17T08:47:52.504Z,7.75
2022-08-17T08:50:37.220Z,6.75
2022-08-17T08:53:12.274Z,6.65
2022-08-17T08:55:46.752Z,5.35
2022-08-17T08:58:31.678Z,7.80
2022-08-17T09:01:16.642Z,5.63
2022-08-17T09:03:53.048Z,8.48
2022-08-17T09:06:39.520Z,6.55
2022-08-17T09:09:13.496Z,7.13
2022-08-17T09:12:02.797Z,6.05
2022-08-17T09:14:45.198Z,4.93
2022-08-17T09:17:18.309Z,5.45
2022-08-17T09:19:55.481Z,5.60
2022-08-17T09:22:31.391Z,8.35
2022-08-17T09:25:04.250Z,8.02
2022-08-17T09:27:34.832Z,5.97
2022-08-17T09:30:08.545Z,7.00
2022-08-17T09:32:39.662Z,6.68
2022-08-17T09:35:14.073Z,8.73
2022-08-17T09:37:55.327Z,5.90
2022-08-17T09:40:26.785Z,6.88
2022-08-17T09:42:57.287Z,5.95
2022-08-17T09:45:32.152Z,6.05
2022-08-17T09:48:05.045Z,6.50
2022-08-17T09:51:05.300Z,4.57
2022-08-17T09:53:31.679Z,9.98
2022-08-17T09:56:04.592Z,6.70
2022-08-17T09:58:41.203Z,8.40
2022-08-17T10:01:13.529Z,6.07
2022-08-17T10:03:50.885Z,5.97
2022-08-17T10:06:23.205Z,3.78
2022-08-17T10:08:55.358Z,9.75
2022-08-17T10:11:50.390Z,5.55
2022-08-17T10:14:36.421Z,4.78
2022-08-17T10:17:12.207Z,7.95
2022-08-17T10:19:43.938Z,6.50
2022-08-17T10:22:37.771Z,10.88
2022-08-17T10:25:37.573Z,5.70
2022-08-17T10:28:20.407Z,4.10
2022-08-17T10:30:58.040Z,5.22
2022-08-17T10:33:48.601Z,4.40
2022-08-17T10:36:21.062Z,6.38
2022-08-17T10:38:49.865Z,6.15
2022-08-17T10:41:25.487Z,5.30
2022-08-17T10:44:38.008Z,4.32
2022-08-17T10:46:52.342Z,7.25
2022-08-17T10:49:25.432Z,4.72
2022-08-17T10:51:55.081Z,6.43
2022-08-17T10:54:37.086Z,4.38
2022-08-17T10:57:25.023Z,5.03
2022-08-17T10:59:54.159Z,3.70
2022-08-17T11:02:28.049Z,5.13
2022-08-17T11:05:02.932Z,4.28
2022-08-17T11:07:41.148Z,2.42
2022-08-17T11:10:19.997Z,3.17
2022-08-17T11:12:54.285Z,3.90
2022-08-17T11:15:26.683Z,4.38
2022-08-17T11:18:09.492Z,4.97
2022-08-17T11:20:47.763Z,5.10
2022-08-17T11:23:24.722Z,3.72
2022-08-17T11:25:54.812Z,6.55
2022-08-17T11:28:26.515Z,6.00
2022-08-17T11:30:57.153Z,3.28
2022-08-17T11:33:44.972Z,3.20
2022-08-17T11:36:18.412Z,4.38
2022-08-17T11:38:49.520Z,4.03
2022-08-17T11:41:22.355Z,2.38
2022-08-17T11:44:05.639Z,3.47
2022-08-17T11:46:57.811Z,3.97
2022-08-17T11:49:49.399Z,2.70
2022-08-17T11:52:32.641Z,4.93
2022-08-17T11:55:17.967Z,4.65
2022-08-17T11:58:00.997Z,3.50
2022-08-17T12:00:49.267Z,5.35
2022-08-17T12:03:23.565Z,5.03
2022-08-17T12:05:53.503Z,5.28
2022-08-17T12:08:22.725Z,4.38
2022-08-17T12:10:57.935Z,3.50
2022-08-17T12:13:27.366Z,5.10
2022-08-17T12:16:01.262Z,5.75
2022-08-17T12:18:32.331Z,3.08
2022-08-17T12:21:04.640Z,3.10
2022-08-17T12:23:37.864Z,3.45
2022-08-17T12:26:09.449Z,5.93
2022-08-17T12:28:38.766Z,5.85
2022-08-17T12:31:09.119Z,4.60
2022-08-17T12:33:44.351Z,5.10
2022-08-17T12:36:15.906Z,7.90
2022-08-17T12:38:51.582Z,3.15
2022-08-17T12:41:32.917Z,4.43
2022-08-17T12:44:02.731Z,3.22
2022-08-17T12:46:33.501Z,3.40
2022-08-17T12:49:22.989Z,5.65
2022-08-17T12:51:51.893Z,5.05
2022-08-17T12:54:23.866Z,6.00
2022-08-17T12:56:52.310Z,5.85
2022-08-17T12:59:30.179Z,4.70
2022-08-17T13:01:59.087Z,5.03
2022-08-17T13:04:29.670Z,4.88
2022-08-17T13:06:59.578Z,4.50
2022-08-17T13:09:35.399Z,3.70
2022-08-17T13:12:08.573Z,3.45
2022-08-17T13:14:37.127Z,4.35
2022-08-17T13:17:09.912Z,3.40
2022-08-17T13:19:49.252Z,3.20
2022-08-17T13:22:18.435Z,4.25
2022-08-17T13:24:54.583Z,5.60
2022-08-17T13:27:24.136Z,5.03
2022-08-17T13:29:53.977Z,4.57
2022-08-17T13:32:24.052Z,3.38
2022-08-17T13:35:12.132Z,4.47
2022-08-17T13:37:58.002Z,3.83
2022-08-17T13:40:34.796Z,4.75
2022-08-17T13:43:03.989Z,6.82
2022-08-17T13:45:39.136Z,3.35
2022-08-17T13:48:11.971Z,5.32
2022-08-17T13:50:45.115Z,3.20
2022-08-17T13:53:22.043Z,3.05
2022-08-17T13:55:52.876Z,3.15
2022-08-17T13:58:22.323Z,4.05
2022-08-17T14:00:51.706Z,4.80
2022-08-17T14:03:20.853Z,3.08
2022-08-17T14:05:52.103Z,4.97
2022-08-17T14:08:21.531Z,3.85
2022-08-17T14:10:52.319Z,2.85
2022-08-17T14:13:21.359Z,5.30
2022-08-17T14:15:56.124Z,3.45
2022-08-17T14:18:55.588Z,4.95
2022-08-17T14:21:15.501Z,4.22
2022-08-17T14:23:54.241Z,2.92
2022-08-17T14:26:28.071Z,3.97
2022-08-17T14:28:57.101Z,2.95
2022-08-17T14:31:27.637Z,4.90
2022-08-17T14:33:58.266Z,4.88
2022-08-17T14:36:28.259Z,5.90
2022-08-17T14:38:56.703Z,5.38
2022-08-17T14:41:25.961Z,3.63
2022-08-17T14:43:54.415Z,3.28
2022-08-17T14:46:22.833Z,4.80
2022-08-17T14:48:57.166Z,3.17
2022-08-17T14:51:27.602Z,4.80
2022-08-17T14:53:58.183Z,3.60
2022-08-17T14:56:27.221Z,3.03
2022-08-17T14:59:00.292Z,3.20
2022-08-17T15:01:28.898Z,8.40
2022-08-17T15:03:57.891Z,3.80
2022-08-17T15:06:26.360Z,3.85
2022-08-17T15:08:54.784Z,3.17
2022-08-17T15:11:25.434Z,3.17
2022-08-17T15:13:53.959Z,4.95
2022-08-17T15:16:23.523Z,5.03
2022-08-17T15:18:52.767Z,4.22
2022-08-17T15:21:21.233Z,5.03
2022-08-17T15:23:50.877Z,3.75
2022-08-17T15:26:22.909Z,4.03
2022-08-17T15:28:56.761Z,4.45
2022-08-17T15:31:31.601Z,4.93
2022-08-17T15:34:01.108Z,3.42
2022-08-17T15:36:29.690Z,4.97
2022-08-17T15:38:58.997Z,3.00
2022-08-17T15:41:28.434Z,3.22
2022-08-17T15:43:58.320Z,3.28
2022-08-17T15:46:27.624Z,5.15
2022-08-17T15:48:59.830Z,4.30
2022-08-17T15:51:29.770Z,3.58
2022-08-17T15:53:59.434Z,4.05
2022-08-17T15:56:33.630Z,2.78
2022-08-17T15:59:03.757Z,2.70
2022-08-17T16:03:15.059Z,6.43
2022-08-17T16:04:29.626Z,4.80
2022-08-17T16:07:00.084Z,5.07
2022-08-17T16:09:29.332Z,3.28
2022-08-17T16:11:58.013Z,2.78
2022-08-17T16:14:33.537Z,4.18
2022-08-17T16:17:04.587Z,3.38
2022-08-17T16:22:16.637Z,6.78
2022-08-17T16:24:59.955Z,4.63
2022-08-17T16:27:29.137Z,2.88
2022-08-17T16:29:58.956Z,4.00
2022-08-17T16:32:32.011Z,3.10
2022-08-17T16:35:03.214Z,4.07
2022-08-17T16:37:31.634Z,3.42
2022-08-17T16:40:03.044Z,2.85
2022-08-17T16:42:33.213Z,4.30
2022-08-17T16:45:06.853Z,5.07
2022-08-17T16:47:35.432Z,3.13
2022-08-17T16:50:04.574Z,3.65
2022-08-17T16:52:33.621Z,2.90
2022-08-17T16:55:02.360Z,2.80
2022-08-17T16:57:31.850Z,2.65
2022-08-17T17:00:00.356Z,3.38
2022-08-17T17:02:32.129Z,3.50
2022-08-17T17:05:03.795Z,3.45
2022-08-17T17:07:37.196Z,2.85
2022-08-17T17:10:08.849Z,2.90
2022-08-17T17:13:03.133Z,3.17
2022-08-17T17:15:30.176Z,2.85
2022-08-17T17:18:07.170Z,3.00
2022-08-17T17:20:38.295Z,3.15
2022-08-17T17:23:09.864Z,2.78
2022-08-17T17:25:45.298Z,3.58
2022-08-17T17:28:19.955Z,3.70
2022-08-17T17:30:51.854Z,4.07
2022-08-17T17:33:23.645Z,3.00
2022-08-17T17:35:52.705Z,3.25
2022-08-17T17:38:23.931Z,2.90
2022-08-17T17:41:02.328Z,4.13
2022-08-17T17:43:39.526Z,4.45
2022-08-17T17:46:27.219Z,3.40
2022-08-17T17:48:58.193Z,4.53
2022-08-17T17:51:54.699Z,4.53
2022-08-17T17:54:24.149Z,5.53
2022-08-17T17:56:55.695Z,4.25
2022-08-17T17:59:27.713Z,4.47
2022-08-17T18:02:00.402Z,4.45
2022-08-17T18:04:32.753Z,4.38
2022-08-17T18:07:09.969Z,3.35
2022-08-17T18:10:04.627Z,3.50
2022-08-17T18:12:50.636Z,4.53
2022-08-17T18:15:24.666Z,4.35
2022-08-17T18:18:44.333Z,6.18
2022-08-17T18:21:19.522Z,4.22
2022-08-17T18:23:48.915Z,7.57
2022-08-17T18:26:36.509Z,5.05
2022-08-17T18:29:14.263Z,6.55
2022-08-17T18:31:42.680Z,4.18
2022-08-17T18:34:43.820Z,6.55
2022-08-17T18:37:11.562Z,8.25
2022-08-17T18:39:44.557Z,4.15
2022-08-17T18:42:27.800Z,6.60
2022-08-17T18:44:56.352Z,6.50
2022-08-17T18:47:25.942Z,6.35
2022-08-17T18:49:58.214Z,7.07
2022-08-17T18:52:29.666Z,6.88
2022-08-17T18:55:08.612Z,5.00
2022-08-17T18:57:38.591Z,4.95
2022-08-17T19:00:12.706Z,6.97
2022-08-17T19:02:51.623Z,5.68
2022-08-17T19:05:28.922Z,5.13
2022-08-17T19:08:17.054Z,4.60
2022-08-17T19:10:47.348Z,5.47
2022-08-17T19:13:24.288Z,4.05
2022-08-17T19:16:11.470Z,3.78
2022-08-17T19:18:44.969Z,5.30
2022-08-17T19:21:16.923Z,3.63
2022-08-17T19:23:53.943Z,5.43
2022-08-17T19:26:55.456Z,4.78
2022-08-17T19:29:16.663Z,4.00
2022-08-17T19:31:48.379Z,4.65
2022-08-17T19:34:33.314Z,4.88
2022-08-17T19:37:07.032Z,5.85
2022-08-17T19:39:40.326Z,4.90
2022-08-17T19:42:13.111Z,4.72
2022-08-17T19:44:47.844Z,3.40
2022-08-17T19:47:30.767Z,3.28
2022-08-17T19:50:15.657Z,3.42
2022-08-17T19:52:48.567Z,4.05
2022-08-17T19:55:25.203Z,4.22
2022-08-17T19:58:00.441Z,4.75
2022-08-17T20:00:31.378Z,5.57
2022-08-17T20:06:11.389Z,4.47
2022-08-17T20:08:41.776Z,3.90
2022-08-17T20:11:12.876Z,3.90
2022-08-17T20:13:42.915Z,4.15
2022-08-17T20:16:12.014Z,3.80
2022-08-17T20:18:47.463Z,4.78
2022-08-17T20:21:19.873Z,4.22
2022-08-17T20:23:53.162Z,5.38
2022-08-17T20:26:26.488Z,5.18
2022-08-17T20:29:37.601Z,4.50
2022-08-17T20:32:23.257Z,6.10
2022-08-17T20:35:04.348Z,4.50
2022-08-17T20:37:45.153Z,5.18
2022-08-17T20:40:21.590Z,5.03
2022-08-17T20:42:51.397Z,6.70
2022-08-17T20:45:40.466Z,5.43
2022-08-17T20:51:13.294Z,5.25
2022-08-17T20:54:02.480Z,5.25
2022-08-17T20:56:48.491Z,5.50
2022-08-17T20:59:31.763Z,6.00
2022-08-17T21:02:18.551Z,6.80
2022-08-17T21:05:00.268Z,4.78
2022-08-17T21:07:33.071Z,4.82
2022-08-17T21:10:14.008Z,4.75
2022-08-17T21:12:43.883Z,4.30
2022-08-17T21:15:21.999Z,7.90
2022-08-17T21:17:59.183Z,5.47
2022-08-17T21:20:32.274Z,5.30
2022-08-17T21:23:10.702Z,5.13
2022-08-17T21:25:51.167Z,4.80
2022-08-17T21:28:33.787Z,6.57
2022-08-17T21:31:08.997Z,5.90
2022-08-17T21:33:39.977Z,5.15
2022-08-17T21:36:24.784Z,5.00
2022-08-17T21:39:03.993Z,5.55
2022-08-17T21:41:33.816Z,5.15
2022-08-17T21:44:13.968Z,5.35
2022-08-17T21:46:46.521Z,5.15
2022-08-17T21:49:17.863Z,6.05
2022-08-17T21:51:50.432Z,5.80
2022-08-17T21:54:26.131Z,5.55
2022-08-17T21:56:54.749Z,5.32
2022-08-17T21:59:27.397Z,5.20
2022-08-17T22:01:58.256Z,6.28
2022-08-17T22:04:30.093Z,5.53
2022-08-17T22:06:59.318Z,6.28
2022-08-17T22:09:29.319Z,6.15
2022-08-17T22:12:04.552Z,6.68
2022-08-17T22:14:51.477Z,7.13
2022-08-17T22:17:23.123Z,7.20
2022-08-17T22:19:54.222Z,8.25
2022-08-17T22:22:27.588Z,9.07
2022-08-17T22:24:57.835Z,8.65
2022-08-17T22:27:41.133Z,10.00
2022-08-17T22:30:18.110Z,9.98
2022-08-17T22:32:48.293Z,10.32
2022-08-17T22:35:18.993Z,10.10
2022-08-17T22:37:47.465Z,10.25
2022-08-17T22:40:26.103Z,11.75
2022-08-17T22:42:54.831Z,11.60
2022-08-17T22:45:24.415Z,11.55
2022-08-17T22:47:55.620Z,11.82
2022-08-17T22:50:26.762Z,12.07
2022-08-17T22:53:16.938Z,12.27
2022-08-17T22:56:10.204Z,12.88
2022-08-17T22:59:01.134Z,12.43
2022-08-17T23:01:31.491Z,13.55
2022-08-17T23:04:02.335Z,13.80
2022-08-17T23:06:33.951Z,13.32
2022-08-17T23:09:04.047Z,12.70
2022-08-17T23:11:42.922Z,12.88
2022-08-17T23:14:16.475Z,13.00
2022-08-17T23:16:44.981Z,13.13
2022-08-17T23:19:13.837Z,13.13
2022-08-17T23:21:44.904Z,13.90
2022-08-17T23:24:16.416Z,13.98
2022-08-17T23:26:44.827Z,14.88
2022-08-17T23:29:13.238Z,14.73
2022-08-17T23:31:41.860Z,13.55
2022-08-17T23:34:12.152Z,14.27
2022-08-17T23:36:40.796Z,14.13
2022-08-17T23:39:10.575Z,15.57
2022-08-17T23:41:40.169Z,14.50
2022-08-17T23:44:08.762Z,15.05
2022-08-17T23:46:37.255Z,14.43
2022-08-17T23:49:06.696Z,13.82
2022-08-17T23:51:38.349Z,13.85
2022-08-17T23:54:09.342Z,14.38
2022-08-17T23:56:44.491Z,14.80
2022-08-17T23:59:13.586Z,16.20
